createdAt,value
2019-01-19T00:00:48.597Z,97364.34
2019-01-19T00:03:37.973Z,97364.77
2019-01-19T00:06:35.957Z,97358.44
2019-01-19T00:09:17.683Z,97356.39
2019-01-19T00:12:37.145Z,97353.95
2019-01-19T00:15:30.471Z,97354.92
2019-01-19T00:18:15.608Z,97350.31
2019-01-19T00:20:57.181Z,97348.23
2019-01-19T00:24:04.137Z,97346.61
2019-01-19T00:27:30.022Z,97338.41
2019-01-19T00:30:22.915Z,97340.90
2019-01-19T00:33:30.507Z,97333.66
2019-01-19T00:36:35.889Z,97330.03
2019-01-19T00:39:52.184Z,97331.92
2019-01-19T00:42:48.737Z,97334.35
2019-01-19T00:45:51.911Z,97327.63
2019-01-19T00:49:07.393Z,97333.53
2019-01-19T00:52:06.598Z,97335.51
2019-01-19T00:55:12.897Z,97335.67
2019-01-19T00:58:01.345Z,97339.38
2019-01-19T01:01:02.497Z,97333.86
2019-01-19T01:04:02.455Z,97328.99
2019-01-19T01:07:17.773Z,97330.35
2019-01-19T01:10:23.527Z,97327.02
2019-01-19T01:13:20.426Z,97326.56
2019-01-19T01:16:00.826Z,97323.97
2019-01-19T01:18:49.803Z,97334.90
2019-01-19T01:22:09.442Z,97333.17
2019-01-19T01:24:59.232Z,97330.55
2019-01-19T01:28:19.221Z,97330.55
2019-01-19T01:31:01.124Z,97321.62
2019-01-19T01:33:59.099Z,97327.76
2019-01-19T01:36:59.504Z,97322.91
2019-01-19T01:40:11.780Z,97331.22
2019-01-19T01:43:25.590Z,97328.35
2019-01-19T01:46:08.271Z,97328.23
2019-01-19T01:49:27.706Z,97323.20
2019-01-19T01:52:29.771Z,97323.31
2019-01-19T01:55:22.571Z,97323.91
2019-01-19T01:58:01.517Z,97322.03
2019-01-19T02:01:13.564Z,97324.77
2019-01-19T02:03:58.706Z,97316.44
2019-01-19T02:06:49.605Z,97312.06
2019-01-19T02:09:52.876Z,97313.14
2019-01-19T02:12:44.872Z,97318.45
2019-01-19T02:16:01.179Z,97321.37
2019-01-19T02:18:55.741Z,97313.24
2019-01-19T02:22:10.203Z,97307.42
2019-01-19T02:24:55.974Z,97305.72
2019-01-19T02:28:06.674Z,97308.34
2019-01-19T02:31:12.504Z,97308.33
2019-01-19T02:33:54.731Z,97301.72
2019-01-19T02:37:17.275Z,97309.12
2019-01-19T02:40:42.684Z,97308.20
2019-01-19T02:43:45.448Z,97306.61
2019-01-19T02:47:00.201Z,97307.78
2019-01-19T02:50:04.257Z,97302.38
2019-01-19T02:53:12.111Z,97303.53
2019-01-19T02:56:28.527Z,97301.06
2019-01-19T02:59:27.460Z,97290.05
2019-01-19T03:02:22.344Z,97294.20
2019-01-19T03:05:15.466Z,97294.14
2019-01-19T03:08:02.895Z,97285.80
2019-01-19T03:10:54.820Z,97287.47
2019-01-19T03:13:44.159Z,97293.45
2019-01-19T03:16:56.890Z,97285.72
2019-01-19T03:20:05.838Z,97291.33
2019-01-19T03:23:21.220Z,97293.16
2019-01-19T03:26:18.403Z,97290.66
2019-01-19T03:29:20.548Z,97292.88
2019-01-19T03:32:23.989Z,97287.36
2019-01-19T03:35:50.077Z,97285.95
2019-01-19T03:39:12.695Z,97287.10
2019-01-19T03:41:59.487Z,97285.17
2019-01-19T03:44:34.748Z,97284.89
2019-01-19T03:47:44.871Z,97281.89
2019-01-19T03:50:53.218Z,97279.27
2019-01-19T03:53:40.960Z,97278.88
2019-01-19T03:56:16.047Z,97277.88
2019-01-19T03:59:23.414Z,97280.45
2019-01-19T04:02:22.548Z,97283.44
2019-01-19T04:05:44.073Z,97279.72
2019-01-19T04:08:30.158Z,97282.27
2019-01-19T04:11:29.487Z,97279.80
2019-01-19T04:14:15.208Z,97274.81
2019-01-19T04:17:22.876Z,97281.50
2019-01-19T04:20:09.438Z,97283.33
2019-01-19T04:22:50.571Z,97281.48
2019-01-19T04:25:43.188Z,97283.44
2019-01-19T04:28:14.417Z,97280.44
2019-01-19T04:30:43.753Z,97279.97
2019-01-19T04:33:13.084Z,97280.81
2019-01-19T04:35:42.442Z,97289.21
2019-01-19T04:38:11.764Z,97279.27
2019-01-19T04:40:41.089Z,97284.65
2019-01-19T04:43:10.448Z,97286.02
2019-01-19T04:45:39.791Z,97282.35
2019-01-19T04:48:09.124Z,97283.28
2019-01-19T04:50:38.594Z,97280.91
2019-01-19T04:53:07.921Z,97277.88
2019-01-19T04:55:37.230Z,97277.90
2019-01-19T04:58:06.564Z,97278.50
2019-01-19T05:00:35.890Z,97275.27
2019-01-19T05:03:05.432Z,97274.48
2019-01-19T05:05:34.747Z,97265.30
2019-01-19T05:08:04.233Z,97265.03
2019-01-19T05:10:33.567Z,97267.36
2019-01-19T05:13:02.901Z,97271.47
2019-01-19T05:15:32.262Z,97261.86
2019-01-19T05:18:01.786Z,97260.61
2019-01-19T05:20:31.127Z,97261.11
2019-01-19T05:23:00.577Z,97265.16
2019-01-19T05:25:29.907Z,97262.17
2019-01-19T05:27:59.238Z,97256.87
2019-01-19T05:30:28.554Z,97258.76
2019-01-19T05:32:57.958Z,97257.87
2019-01-19T05:35:27.271Z,97254.14
2019-01-19T05:37:56.597Z,97259.47
2019-01-19T05:40:25.990Z,97260.39
2019-01-19T05:42:55.415Z,97258.77
2019-01-19T05:45:24.699Z,97257.67
2019-01-19T05:47:54.009Z,97260.27
2019-01-19T05:50:23.676Z,97264.18
2019-01-19T05:52:52.998Z,97258.08
2019-01-19T05:55:22.425Z,97259.22
2019-01-19T05:57:51.809Z,97260.64
2019-01-19T06:00:34.044Z,97262.75
2019-01-19T06:03:03.445Z,97250.51
2019-01-19T06:05:32.858Z,97256.00
2019-01-19T06:08:02.277Z,97258.50
2019-01-19T06:10:31.613Z,97253.66
2019-01-19T06:13:00.931Z,97253.23
2019-01-19T06:15:30.250Z,97247.75
2019-01-19T06:17:59.650Z,97246.88
2019-01-19T06:20:28.979Z,97240.07
2019-01-19T06:22:58.328Z,97253.59
2019-01-19T06:25:27.688Z,97242.77
2019-01-19T06:27:57.106Z,97250.03
2019-01-19T06:30:26.463Z,97251.37
2019-01-19T06:32:55.795Z,97249.60
2019-01-19T06:35:25.337Z,97249.05
2019-01-19T06:37:54.735Z,97249.70
2019-01-19T06:40:24.063Z,97247.67
2019-01-19T06:42:53.439Z,97249.65
2019-01-19T06:45:25.029Z,97243.77
2019-01-19T06:47:54.421Z,97242.88
2019-01-19T06:50:23.883Z,97244.86
2019-01-19T06:52:53.327Z,97243.52
2019-01-19T06:55:31.103Z,97243.18
2019-01-19T06:58:00.453Z,97235.90
2019-01-19T07:00:29.847Z,97246.89
2019-01-19T07:02:59.163Z,97253.18
2019-01-19T07:05:28.565Z,97247.84
2019-01-19T07:07:57.929Z,97254.67
2019-01-19T07:10:27.586Z,97247.11
2019-01-19T07:12:56.937Z,97253.89
2019-01-19T07:15:26.247Z,97238.92
2019-01-19T07:17:55.629Z,97241.25
2019-01-19T07:20:27.640Z,97251.58
2019-01-19T07:22:56.945Z,97251.64
2019-01-19T07:25:26.270Z,97254.10
2019-01-19T07:27:55.643Z,97252.94
2019-01-19T07:30:24.982Z,97259.52
2019-01-19T07:32:54.383Z,97253.02
2019-01-19T07:35:23.736Z,97256.43
2019-01-19T07:37:53.130Z,97257.73
2019-01-19T07:40:22.552Z,97262.94
2019-01-19T07:42:56.737Z,97262.66
2019-01-19T07:45:26.152Z,97258.68
2019-01-19T07:47:55.464Z,97255.59
2019-01-19T07:50:24.949Z,97254.95
2019-01-19T07:52:54.245Z,97260.04
2019-01-19T07:55:23.561Z,97246.56
2019-01-19T07:57:54.519Z,97248.70
2019-01-19T08:00:26.315Z,97256.66
2019-01-19T08:02:55.716Z,97254.29
2019-01-19T08:05:25.115Z,97262.34
2019-01-19T08:07:54.430Z,97256.37
2019-01-19T08:10:23.828Z,97260.50
2019-01-19T08:12:53.190Z,97257.36
2019-01-19T08:15:24.404Z,97261.30
2019-01-19T08:17:53.880Z,97268.92
2019-01-19T08:20:23.299Z,97262.70
2019-01-19T08:22:52.722Z,97258.49
2019-01-19T08:25:22.107Z,97257.66
2019-01-19T08:27:51.414Z,97269.38
2019-01-19T08:30:25.952Z,97258.91
2019-01-19T08:32:55.435Z,97255.42
2019-01-19T08:35:24.923Z,97263.02
2019-01-19T08:37:54.359Z,97255.31
2019-01-19T08:40:29.117Z,97261.22
2019-01-19T08:43:03.068Z,97258.64
2019-01-19T08:45:32.389Z,97255.95
2019-01-19T08:48:02.712Z,97258.36
2019-01-19T08:50:32.137Z,97254.79
2019-01-19T08:53:01.546Z,97259.21
2019-01-19T08:55:30.865Z,97250.24
2019-01-19T08:58:00.256Z,97253.77
2019-01-19T09:00:29.692Z,97257.45
2019-01-19T09:02:59.039Z,97251.36
2019-01-19T09:05:28.460Z,97250.22
2019-01-19T09:07:57.894Z,97258.16
2019-01-19T09:10:27.262Z,97259.64
2019-01-19T09:12:56.603Z,97254.95
2019-01-19T09:15:25.984Z,97261.25
2019-01-19T09:17:55.299Z,97254.77
2019-01-19T09:20:24.613Z,97255.38
2019-01-19T09:22:58.499Z,97253.33
2019-01-19T09:25:28.011Z,97257.52
2019-01-19T09:27:57.338Z,97248.57
2019-01-19T09:30:26.663Z,97258.02
2019-01-19T09:32:56.183Z,97256.87
2019-01-19T09:35:25.775Z,97252.27
2019-01-19T09:37:55.139Z,97254.68
2019-01-19T09:40:24.486Z,97246.97
2019-01-19T09:42:53.957Z,97248.71
2019-01-19T09:45:23.352Z,97243.69
2019-01-19T09:47:52.701Z,97245.43
2019-01-19T09:50:22.112Z,97245.32
2019-01-19T09:52:51.560Z,97249.30
2019-01-19T09:55:20.991Z,97238.42
2019-01-19T09:57:50.539Z,97228.70
2019-01-19T10:00:20.187Z,97235.04
2019-01-19T10:02:49.699Z,97229.80
2019-01-19T10:05:20.864Z,97236.14
2019-01-19T10:07:50.347Z,97229.44
2019-01-19T10:10:20.115Z,97226.95
2019-01-19T10:12:49.543Z,97227.21
2019-01-19T10:15:19.040Z,97220.14
2019-01-19T10:17:48.528Z,97219.25
2019-01-19T10:20:19.752Z,97216.92
2019-01-19T10:22:49.180Z,97212.67
2019-01-19T10:25:18.542Z,97211.29
2019-01-19T10:27:48.013Z,97205.14
2019-01-19T10:30:19.601Z,97208.30
2019-01-19T10:32:49.786Z,97206.55
2019-01-19T10:35:19.212Z,97205.28
2019-01-19T10:37:55.667Z,97199.11
2019-01-19T10:40:19.667Z,97202.45
2019-01-19T10:42:49.102Z,97199.75
2019-01-19T10:45:20.700Z,97199.30
2019-01-19T10:47:50.178Z,97197.42
2019-01-19T10:50:19.691Z,97196.02
2019-01-19T10:52:49.226Z,97193.19
2019-01-19T10:55:19.544Z,97184.98
2019-01-19T10:57:48.936Z,97184.88
2019-01-19T11:00:23.649Z,97182.98
2019-01-19T11:02:53.286Z,97176.23
2019-01-19T11:05:22.813Z,97176.02
2019-01-19T11:07:52.389Z,97167.64
2019-01-19T11:10:23.713Z,97168.73
2019-01-19T11:12:53.125Z,97163.72
2019-01-19T11:15:22.534Z,97163.96
2019-01-19T11:17:52.021Z,97157.63
2019-01-19T11:20:23.489Z,97157.99
2019-01-19T11:22:52.965Z,97157.63
2019-01-19T11:25:22.443Z,97152.50
2019-01-19T11:27:51.771Z,97155.24
2019-01-19T11:30:23.150Z,97153.33
2019-01-19T11:32:52.614Z,97148.31
2019-01-19T11:35:22.107Z,97149.39
2019-01-19T11:37:51.623Z,97145.44
2019-01-19T11:40:23.549Z,97138.98
2019-01-19T11:42:52.871Z,97133.86
2019-01-19T11:45:22.834Z,97133.73
2019-01-19T11:47:52.403Z,97124.30
2019-01-19T11:50:22.816Z,97127.28
2019-01-19T11:52:52.315Z,97117.38
2019-01-19T11:55:21.782Z,97117.25
2019-01-19T11:57:53.335Z,97116.55
2019-01-19T12:00:24.594Z,97111.65
2019-01-19T12:02:54.190Z,97108.30
2019-01-19T12:05:23.540Z,97098.98
2019-01-19T12:07:52.937Z,97104.36
2019-01-19T12:10:24.372Z,97103.64
2019-01-19T12:12:53.840Z,97100.54
2019-01-19T12:15:23.177Z,97096.23
2019-01-19T12:17:52.667Z,97092.42
2019-01-19T12:20:24.466Z,97096.35
2019-01-19T12:22:54.330Z,97095.04
2019-01-19T12:25:23.869Z,97085.95
2019-01-19T12:27:53.602Z,97084.27
2019-01-19T12:30:25.041Z,97083.67
2019-01-19T12:32:54.474Z,97077.69
2019-01-19T12:35:23.917Z,97073.02
2019-01-19T12:37:53.329Z,97069.16
2019-01-19T12:40:23.830Z,97074.95
2019-01-19T12:42:55.883Z,97073.66
2019-01-19T12:45:28.379Z,97069.34
2019-01-19T12:47:57.898Z,97071.24
2019-01-19T12:50:27.448Z,97067.63
2019-01-19T12:52:56.875Z,97070.28
2019-01-19T12:55:26.235Z,97066.69
2019-01-19T12:57:55.657Z,97062.38
2019-01-19T13:00:26.034Z,97059.39
2019-01-19T13:02:55.676Z,97053.32
2019-01-19T13:05:28.787Z,97049.35
2019-01-19T13:07:58.216Z,97050.66
2019-01-19T13:10:37.036Z,97049.48
2019-01-19T13:13:18.429Z,97041.46
2019-01-19T13:16:32.004Z,97040.98
2019-01-19T13:19:15.749Z,97038.48
2019-01-19T13:22:29.725Z,97037.06
2019-01-19T13:25:46.141Z,97030.84
2019-01-19T13:28:38.376Z,97031.02
2019-01-19T13:31:53.538Z,97029.05
2019-01-19T13:34:55.424Z,97032.64
2019-01-19T13:38:03.967Z,97027.38
2019-01-19T13:40:58.209Z,97030.81
2019-01-19T13:44:18.012Z,97018.38
2019-01-19T13:47:23.355Z,97027.23
2019-01-19T13:50:14.221Z,97019.47
2019-01-19T13:53:15.207Z,97020.20
2019-01-19T13:56:14.331Z,97019.14
2019-01-19T13:58:51.915Z,97024.19
2019-01-19T14:01:53.902Z,97016.91
2019-01-19T14:04:55.747Z,97019.67
2019-01-19T14:07:52.650Z,97017.54
2019-01-19T14:10:28.282Z,97013.53
2019-01-19T14:13:31.653Z,97016.76
2019-01-19T14:16:17.416Z,97010.58
2019-01-19T14:19:05.535Z,97014.06
2019-01-19T14:21:59.179Z,97013.37
2019-01-19T14:25:21.738Z,97007.17
2019-01-19T14:28:09.278Z,97006.61
2019-01-19T14:31:14.493Z,97009.84
2019-01-19T14:34:28.562Z,97005.67
2019-01-19T14:37:09.678Z,96995.66
2019-01-19T14:39:50.949Z,96996.27
2019-01-19T14:42:56.951Z,96992.09
2019-01-19T14:46:09.646Z,96990.90
2019-01-19T14:48:56.702Z,96987.31
2019-01-19T14:51:54.378Z,96980.88
2019-01-19T14:54:54.391Z,96981.35
2019-01-19T14:57:54.561Z,96977.53
2019-01-19T15:01:01.738Z,96974.12
2019-01-19T15:03:59.928Z,96974.84
2019-01-19T15:07:16.546Z,96970.78
2019-01-19T15:10:24.346Z,96970.19
2019-01-19T15:13:37.650Z,96980.20
2019-01-19T15:16:30.132Z,96970.55
2019-01-19T15:19:30.138Z,96970.31
2019-01-19T15:22:18.025Z,96971.00
2019-01-19T15:25:17.065Z,96964.67
2019-01-19T15:27:59.104Z,96959.55
2019-01-19T15:31:00.997Z,96958.24
2019-01-19T15:34:12.751Z,96963.97
2019-01-19T15:37:19.147Z,96957.42
2019-01-19T15:40:36.645Z,96961.71
2019-01-19T15:43:19.202Z,96951.09
2019-01-19T15:46:28.366Z,96955.50
2019-01-19T15:49:37.721Z,96953.02
2019-01-19T15:52:19.390Z,96946.45
2019-01-19T15:55:32.055Z,96945.23
2019-01-19T15:58:42.786Z,96948.20
2019-01-19T16:01:52.713Z,96951.48
2019-01-19T16:04:52.335Z,96951.70
2019-01-19T16:07:58.199Z,96950.13
2019-01-19T16:11:03.427Z,96954.23
2019-01-19T16:14:09.767Z,96952.63
2019-01-19T16:17:21.382Z,96957.33
2019-01-19T16:20:28.819Z,96959.11
2019-01-19T16:23:30.786Z,96953.16
2019-01-19T16:27:11.543Z,96956.66
2019-01-19T16:30:10.845Z,96959.37
2019-01-19T16:33:30.328Z,96952.93
2019-01-19T16:36:30.377Z,96954.41
2019-01-19T16:39:40.915Z,96949.76
2019-01-19T16:42:51.276Z,96955.62
2019-01-19T16:45:42.615Z,96954.01
2019-01-19T16:48:34.753Z,96949.09
2019-01-19T16:51:39.687Z,96949.26
2019-01-19T16:54:17.050Z,96950.91
2019-01-19T16:57:22.133Z,96949.97
2019-01-19T17:00:17.846Z,96946.63
2019-01-19T17:03:19.308Z,96944.53
2019-01-19T17:06:09.171Z,96945.31
2019-01-19T17:09:16.094Z,96949.01
2019-01-19T17:12:21.647Z,96947.86
2019-01-19T17:15:35.415Z,96947.64
2019-01-19T17:18:16.928Z,96943.07
2019-01-19T17:21:16.621Z,96943.73
2019-01-19T17:23:58.098Z,96935.77
2019-01-19T17:27:03.231Z,96938.16
2019-01-19T17:30:13.697Z,96939.19
2019-01-19T17:32:58.175Z,96939.09
2019-01-19T17:36:14.177Z,96941.06
2019-01-19T17:39:04.313Z,96944.52
2019-01-19T17:42:19.605Z,96948.83
2019-01-19T17:44:58.058Z,96942.20
2019-01-19T17:47:50.026Z,96942.53
2019-01-19T17:50:34.410Z,96942.10
2019-01-19T17:53:16.306Z,96943.67
2019-01-19T17:56:16.353Z,96942.47
2019-01-19T17:59:25.922Z,96939.56
2019-01-19T18:02:35.717Z,96943.94
2019-01-19T18:05:38.903Z,96943.00
2019-01-19T18:08:50.939Z,96950.97
2019-01-19T18:11:49.430Z,96954.16
2019-01-19T18:14:47.161Z,96950.08
2019-01-19T18:17:44.566Z,96955.31
2019-01-19T18:20:52.980Z,96954.73
2019-01-19T18:24:02.958Z,96946.28
2019-01-19T18:27:07.189Z,96952.02
2019-01-19T18:29:50.251Z,96952.66
2019-01-19T18:32:32.409Z,96955.93
2019-01-19T18:35:37.435Z,96955.23
2019-01-19T18:38:52.931Z,96956.25
2019-01-19T18:42:00.557Z,96950.00
2019-01-19T18:45:17.826Z,96954.55
2019-01-19T18:48:06.233Z,96943.34
2019-01-19T18:51:14.694Z,96942.27
2019-01-19T18:54:23.391Z,96944.80
2019-01-19T18:57:32.303Z,96945.97
2019-01-19T19:00:15.958Z,96936.45
2019-01-19T19:03:31.425Z,96938.32
2019-01-19T19:06:57.061Z,96939.56
2019-01-19T19:09:35.326Z,96936.78
2019-01-19T19:12:36.607Z,96936.84
2019-01-19T19:15:15.353Z,96934.70
2019-01-19T19:18:20.559Z,96937.13
2019-01-19T19:21:43.179Z,96936.10
2019-01-19T19:24:38.130Z,96932.50
2019-01-19T19:27:38.697Z,96935.16
2019-01-19T19:31:07.470Z,96925.20
2019-01-19T19:34:03.934Z,96930.42
2019-01-19T19:37:03.874Z,96930.33
2019-01-19T19:39:57.557Z,96928.55
2019-01-19T19:43:14.349Z,96928.64
2019-01-19T19:46:39.725Z,96940.27
2019-01-19T19:49:22.182Z,96934.31
2019-01-19T19:52:02.959Z,96934.88
2019-01-19T19:54:33.040Z,96936.28
2019-01-19T19:57:02.680Z,96940.09
2019-01-19T19:59:32.095Z,96933.22
2019-01-19T20:02:01.547Z,96931.91
2019-01-19T20:04:30.959Z,96938.89
2019-01-19T20:07:00.480Z,96934.70
2019-01-19T20:09:29.902Z,96939.17
2019-01-19T20:12:04.611Z,96935.45
2019-01-19T20:14:33.963Z,96937.78
2019-01-19T20:17:03.469Z,96933.41
2019-01-19T20:19:32.873Z,96935.08
2019-01-19T20:22:02.215Z,96932.19
2019-01-19T20:24:31.573Z,96932.38
2019-01-19T20:27:00.935Z,96935.45
2019-01-19T20:29:30.308Z,96929.59
2019-01-19T20:31:59.696Z,96928.28
2019-01-19T20:34:29.167Z,96932.38
2019-01-19T20:36:58.516Z,96929.59
2019-01-19T20:39:27.967Z,96915.73
2019-01-19T20:41:57.330Z,96926.16
2019-01-19T20:44:26.684Z,96927.45
2019-01-19T20:46:56.080Z,96921.69
2019-01-19T20:49:25.484Z,96927.82
2019-01-19T20:51:54.840Z,96919.82
2019-01-19T20:54:24.288Z,96924.66
2019-01-19T20:56:53.646Z,96929.59
2019-01-19T20:59:23.065Z,96925.50
2019-01-19T21:01:52.434Z,96926.33
2019-01-19T21:04:21.779Z,96924.94
2019-01-19T21:06:51.176Z,96927.17
2019-01-19T21:09:20.570Z,96924.47
2019-01-19T21:11:49.915Z,96928.11
2019-01-19T21:14:19.253Z,96923.08
2019-01-19T21:16:48.857Z,96926.98
2019-01-19T21:19:18.191Z,96929.50
2019-01-19T21:21:47.514Z,96918.80
2019-01-19T21:24:16.938Z,96920.66
2019-01-19T21:26:46.286Z,96919.91
2019-01-19T21:29:15.643Z,96914.89
2019-01-19T21:31:45.123Z,96919.72
2019-01-19T21:34:14.517Z,96921.12
2019-01-19T21:36:43.832Z,96926.33
2019-01-19T21:39:13.254Z,96924.86
2019-01-19T21:41:42.588Z,96927.19
2019-01-19T21:44:11.914Z,96936.06
2019-01-19T21:46:41.306Z,96927.70
2019-01-19T21:49:10.725Z,96931.80
2019-01-19T21:51:40.197Z,96930.30
2019-01-19T21:54:09.608Z,96934.13
2019-01-19T21:56:38.895Z,96929.95
2019-01-19T21:59:08.359Z,96926.97
2019-01-19T22:01:37.717Z,96934.23
2019-01-19T22:04:07.093Z,96932.94
2019-01-19T22:06:36.556Z,96929.41
2019-01-19T22:09:07.636Z,96929.48
2019-01-19T22:11:37.104Z,96926.25
2019-01-19T22:14:06.544Z,96925.38
2019-01-19T22:16:35.900Z,96936.23
2019-01-19T22:19:05.324Z,96932.55
2019-01-19T22:21:34.753Z,96925.84
2019-01-19T22:24:04.111Z,96924.01
2019-01-19T22:26:33.824Z,96921.77
2019-01-19T22:29:03.190Z,96923.80
2019-01-19T22:31:32.679Z,96923.80
2019-01-19T22:34:02.035Z,96922.22
2019-01-19T22:36:31.467Z,96921.45
2019-01-19T22:39:01.164Z,96925.55
2019-01-19T22:41:30.524Z,96928.41
2019-01-19T22:43:59.890Z,96921.30
2019-01-19T22:46:29.520Z,96915.27
2019-01-19T22:48:58.829Z,96920.47
2019-01-19T22:51:28.163Z,96921.97
2019-01-19T22:53:57.517Z,96912.66
2019-01-19T22:56:26.897Z,96916.10
2019-01-19T22:58:56.408Z,96913.22
2019-01-19T23:01:30.178Z,96914.52
2019-01-19T23:03:59.531Z,96909.69
2019-01-19T23:06:28.912Z,96909.41
2019-01-19T23:08:58.283Z,96905.59
2019-01-19T23:11:33.750Z,96914.80
2019-01-19T23:13:58.898Z,96907.27
2019-01-19T23:16:28.336Z,96909.97
2019-01-19T23:18:57.668Z,96913.22
2019-01-19T23:21:27.028Z,96913.03
2019-01-19T23:23:56.454Z,96910.34
2019-01-19T23:26:26.093Z,96907.36
2019-01-19T23:28:55.515Z,96911.66
2019-01-19T23:31:24.960Z,96909.52
2019-01-19T23:33:54.338Z,96916.09
2019-01-19T23:36:23.722Z,96911.73
2019-01-19T23:38:53.169Z,96907.47
2019-01-19T23:41:24.605Z,96906.92
2019-01-19T23:43:54.021Z,96912.13
2019-01-19T23:46:23.483Z,96909.70
2019-01-19T23:48:53.094Z,96908.01
2019-01-19T23:51:22.523Z,96909.97
2019-01-19T23:53:51.901Z,96904.84
2019-01-19T23:56:21.362Z,96904.30
2019-01-19T23:58:50.707Z,96907.27
